createdAt,value
2018-06-11T00:00:54.626Z,19.00
2018-06-11T00:03:26.197Z,19.00
2018-06-11T00:05:57.745Z,18.90
2018-06-11T00:08:29.416Z,18.90
2018-06-11T00:11:00.954Z,18.90
2018-06-11T00:13:32.627Z,18.90
2018-06-11T00:16:04.299Z,18.90
2018-06-11T00:18:35.948Z,18.80
2018-06-11T00:21:07.473Z,18.80
2018-06-11T00:23:39.054Z,18.70
2018-06-11T00:26:10.656Z,18.70
2018-06-11T00:28:42.290Z,18.70
2018-06-11T00:31:14.001Z,18.70
2018-06-11T00:33:45.798Z,18.70
2018-06-11T00:36:17.541Z,18.70
2018-06-11T00:38:49.199Z,18.60
2018-06-11T00:41:20.849Z,18.60
2018-06-11T00:43:52.405Z,18.60
2018-06-11T00:46:23.974Z,18.60
2018-06-11T00:48:55.615Z,18.60
2018-06-11T00:51:27.143Z,18.60
2018-06-11T00:53:58.729Z,18.60
2018-06-11T00:56:30.386Z,18.60
2018-06-11T00:59:02.008Z,18.60
2018-06-11T01:01:33.669Z,18.50
2018-06-11T01:04:05.513Z,18.50
2018-06-11T01:06:37.329Z,18.50
2018-06-11T01:09:10.105Z,18.50
2018-06-11T01:11:41.757Z,18.50
2018-06-11T01:14:13.413Z,18.50
2018-06-11T01:16:45.021Z,18.50
2018-06-11T01:19:16.743Z,18.40
2018-06-11T01:21:48.493Z,18.40
2018-06-11T01:24:20.138Z,18.40
2018-06-11T01:26:51.638Z,18.40
2018-06-11T01:29:23.344Z,18.40
2018-06-11T01:31:54.840Z,18.30
2018-06-11T01:34:26.962Z,18.30
2018-06-11T01:36:58.739Z,18.30
2018-06-11T01:39:30.378Z,18.40
2018-06-11T01:42:02.038Z,18.40
2018-06-11T01:44:33.690Z,18.30
2018-06-11T01:47:05.412Z,18.40
2018-06-11T01:49:37.034Z,18.40
2018-06-11T01:52:08.609Z,18.40
2018-06-11T01:54:40.320Z,18.40
2018-06-11T01:57:11.989Z,18.40
2018-06-11T01:59:43.778Z,18.40
2018-06-11T02:02:15.252Z,18.40
2018-06-11T02:04:46.940Z,18.40
2018-06-11T02:07:18.554Z,18.40
2018-06-11T02:09:50.219Z,18.40
2018-06-11T02:12:21.898Z,18.40
2018-06-11T02:14:53.489Z,18.30
2018-06-11T02:17:25.515Z,18.30
2018-06-11T02:19:57.189Z,18.30
2018-06-11T02:22:28.773Z,18.20
2018-06-11T02:25:00.428Z,18.20
2018-06-11T02:27:32.027Z,18.30
2018-06-11T02:30:03.650Z,18.30
2018-06-11T02:32:35.292Z,18.30
2018-06-11T02:35:07.150Z,18.30
2018-06-11T02:37:39.058Z,18.30
2018-06-11T02:40:10.882Z,18.20
2018-06-11T02:42:42.486Z,18.20
2018-06-11T02:45:14.063Z,18.30
2018-06-11T02:47:45.674Z,18.30
2018-06-11T02:50:17.299Z,18.30
2018-06-11T02:52:48.784Z,18.30
2018-06-11T02:55:20.493Z,18.30
2018-06-11T02:57:52.121Z,18.30
2018-06-11T03:00:23.798Z,18.40
2018-06-11T03:02:55.333Z,18.40
2018-06-11T03:05:27.013Z,18.40
2018-06-11T03:07:58.662Z,18.30
2018-06-11T03:10:30.308Z,18.30
2018-06-11T03:13:02.096Z,18.40
2018-06-11T03:15:33.743Z,18.40
2018-06-11T03:18:05.493Z,18.40
2018-06-11T03:20:37.068Z,18.50
2018-06-11T03:23:08.551Z,18.50
2018-06-11T03:25:40.322Z,18.50
2018-06-11T03:28:11.903Z,18.50
2018-06-11T03:30:43.460Z,18.40
2018-06-11T03:33:14.972Z,18.40
2018-06-11T03:35:46.711Z,18.40
2018-06-11T03:38:18.425Z,18.40
2018-06-11T03:40:50.205Z,18.30
2018-06-11T03:43:21.738Z,18.30
2018-06-11T03:45:53.554Z,18.30
2018-06-11T03:48:25.267Z,18.40
2018-06-11T03:50:56.845Z,18.40
2018-06-11T03:53:28.327Z,18.40
2018-06-11T03:55:59.994Z,18.30
2018-06-11T03:58:31.553Z,18.40
2018-06-11T04:01:03.199Z,18.40
2018-06-11T04:03:34.783Z,18.40
2018-06-11T04:06:06.462Z,18.50
2018-06-11T04:08:38.109Z,18.50
2018-06-11T04:11:09.895Z,18.60
2018-06-11T04:13:41.554Z,18.60
2018-06-11T04:16:13.391Z,18.50
2018-06-11T04:18:44.978Z,18.50
2018-06-11T04:21:16.697Z,18.50
2018-06-11T04:23:48.457Z,18.50
2018-06-11T04:26:19.938Z,18.50
2018-06-11T04:28:51.772Z,18.60
2018-06-11T04:31:23.355Z,18.60
2018-06-11T04:33:54.825Z,18.60
2018-06-11T04:36:26.473Z,18.60
2018-06-11T04:38:58.036Z,18.60
2018-06-11T04:41:29.840Z,18.70
2018-06-11T04:44:01.390Z,18.70
2018-06-11T04:46:33.061Z,18.80
2018-06-11T04:49:04.599Z,18.80
2018-06-11T04:51:36.370Z,18.90
2018-06-11T04:54:07.907Z,19.00
2018-06-11T04:56:39.703Z,19.10
2018-06-11T04:59:11.340Z,19.30
2018-06-11T05:01:42.996Z,19.40
2018-06-11T05:04:14.501Z,19.50
2018-06-11T05:06:46.136Z,19.60
2018-06-11T05:09:17.600Z,19.70
2018-06-11T05:11:49.309Z,19.80
2018-06-11T05:14:20.856Z,19.80
2018-06-11T05:16:52.512Z,19.90
2018-06-11T05:19:24.192Z,19.80
2018-06-11T05:21:55.762Z,19.90
2018-06-11T05:24:27.279Z,19.90
2018-06-11T05:26:58.954Z,19.90
2018-06-11T05:32:01.674Z,19.90
2018-06-11T05:34:33.326Z,19.90
2018-06-11T05:37:05.030Z,19.80
2018-06-11T05:39:36.753Z,19.90
2018-06-11T05:42:08.798Z,19.90
2018-06-11T05:44:40.482Z,20.00
2018-06-11T05:47:12.153Z,20.10
2018-06-11T05:49:43.978Z,20.10
2018-06-11T05:52:15.678Z,20.20
2018-06-11T05:54:47.537Z,20.20
2018-06-11T05:57:19.292Z,20.30
2018-06-11T05:59:50.953Z,20.40
2018-06-11T06:02:22.877Z,20.50
2018-06-11T06:04:54.621Z,20.60
2018-06-11T06:07:26.274Z,20.60
2018-06-11T06:09:57.825Z,20.70
2018-06-11T06:12:29.369Z,20.80
2018-06-11T06:15:01.137Z,20.90
2018-06-11T06:17:32.798Z,21.00
2018-06-11T06:20:04.552Z,21.10
2018-06-11T06:22:36.215Z,21.20
2018-06-11T06:25:07.769Z,21.40
2018-06-11T06:27:39.422Z,21.50
2018-06-11T06:30:10.974Z,21.60
2018-06-11T06:32:42.679Z,21.70
2018-06-11T06:35:14.392Z,21.80
2018-06-11T06:37:46.106Z,21.80
2018-06-11T06:40:17.722Z,21.90
2018-06-11T06:42:49.354Z,21.90
2018-06-11T06:45:21.105Z,21.90
2018-06-11T06:47:52.689Z,22.00
2018-06-11T06:50:24.381Z,22.10
2018-06-11T06:52:55.998Z,22.20
2018-06-11T06:55:27.530Z,22.30
2018-06-11T06:57:59.198Z,22.50
2018-06-11T07:00:30.791Z,22.60
2018-06-11T07:03:02.389Z,22.70
2018-06-11T07:05:34.053Z,22.80
2018-06-11T07:08:05.681Z,22.90
2018-06-11T07:10:37.447Z,23.00
2018-06-11T07:13:09.193Z,23.10
2018-06-11T07:15:40.918Z,23.30
2018-06-11T07:18:12.472Z,23.40
2018-06-11T07:20:44.102Z,23.50
2018-06-11T07:23:15.674Z,23.60
2018-06-11T07:25:47.312Z,23.70
2018-06-11T07:28:18.899Z,23.80
2018-06-11T07:30:50.621Z,24.00
2018-06-11T07:33:22.205Z,24.00
2018-06-11T07:35:53.868Z,24.10
2018-06-11T07:38:25.697Z,24.10
2018-06-11T07:40:57.323Z,24.20
2018-06-11T07:43:28.890Z,24.30
2018-06-11T07:46:00.571Z,24.30
2018-06-11T07:48:32.260Z,24.40
2018-06-11T07:51:03.888Z,24.50
2018-06-11T07:53:35.636Z,24.60
2018-06-11T07:56:07.495Z,24.70
2018-06-11T07:58:39.086Z,24.80
2018-06-11T08:01:10.664Z,25.00
2018-06-11T08:03:42.468Z,25.10
2018-06-11T08:06:14.005Z,25.10
2018-06-11T08:08:45.569Z,25.20
2018-06-11T08:11:17.236Z,25.30
2018-06-11T08:13:48.895Z,25.40
2018-06-11T08:16:20.469Z,25.40
2018-06-11T08:18:51.993Z,25.50
2018-06-11T08:21:23.558Z,25.70
2018-06-11T08:23:55.213Z,25.80
2018-06-11T08:26:26.893Z,26.00
2018-06-11T08:28:58.521Z,26.10
2018-06-11T08:31:30.178Z,26.30
2018-06-11T08:34:01.843Z,26.40
2018-06-11T08:36:33.493Z,26.60
2018-06-11T08:39:07.045Z,26.70
2018-06-11T08:41:38.753Z,26.80
2018-06-11T08:44:10.325Z,26.90
2018-06-11T08:46:42.079Z,27.10
2018-06-11T08:49:13.654Z,27.20
2018-06-11T08:51:45.386Z,27.30
2018-06-11T08:54:17.037Z,27.30
2018-06-11T08:56:48.650Z,27.20
2018-06-11T08:59:20.604Z,27.30
2018-06-11T09:01:52.349Z,27.30
2018-06-11T09:04:24.273Z,27.40
2018-06-11T09:06:56.034Z,27.50
2018-06-11T09:09:27.618Z,27.60
2018-06-11T09:11:59.235Z,27.60
2018-06-11T09:14:30.900Z,27.80
2018-06-11T09:17:02.583Z,27.80
2018-06-11T09:19:34.002Z,27.90
2018-06-11T09:22:05.660Z,28.00
2018-06-11T09:24:37.212Z,28.10
2018-06-11T09:27:08.976Z,28.30
2018-06-11T09:29:40.530Z,28.40
2018-06-11T09:32:12.286Z,28.50
2018-06-11T09:34:43.869Z,28.50
2018-06-11T09:37:15.613Z,28.50
2018-06-11T09:39:47.254Z,28.50
2018-06-11T09:42:18.837Z,28.30
2018-06-11T09:44:50.665Z,28.10
2018-06-11T09:49:53.201Z,28.00
2018-06-11T09:52:24.813Z,27.90
2018-06-11T09:54:56.364Z,28.00
2018-06-11T09:57:28.097Z,28.10
2018-06-11T09:59:59.832Z,28.20
2018-06-11T10:02:31.625Z,28.30
2018-06-11T10:05:03.232Z,28.40
2018-06-11T10:07:34.857Z,28.40
2018-06-11T10:10:06.647Z,28.50
2018-06-11T10:12:38.169Z,28.50
2018-06-11T10:15:09.725Z,28.50
2018-06-11T10:17:41.380Z,28.30
2018-06-11T10:20:12.971Z,28.10
2018-06-11T10:22:44.619Z,27.80
2018-06-11T10:25:16.172Z,27.60
2018-06-11T10:27:47.686Z,27.40
2018-06-11T10:30:19.368Z,27.30
2018-06-11T10:32:50.942Z,27.20
2018-06-11T10:35:22.458Z,27.10
2018-06-11T10:37:54.133Z,27.00
2018-06-11T10:40:25.885Z,26.90
2018-06-11T10:42:57.548Z,26.90
2018-06-11T10:45:29.160Z,26.80
2018-06-11T10:48:00.786Z,26.90
2018-06-11T10:50:32.527Z,26.90
2018-06-11T10:55:35.636Z,26.40
2018-06-11T10:58:07.373Z,25.90
2018-06-11T11:00:39.387Z,25.30
2018-06-11T11:03:11.113Z,24.80
2018-06-11T11:05:43.109Z,24.40
2018-06-11T11:08:15.336Z,24.30
2018-06-11T11:10:47.468Z,24.30
2018-06-11T11:13:19.333Z,24.20
2018-06-11T11:15:50.941Z,24.10
2018-06-11T11:18:22.492Z,24.00
2018-06-11T11:20:54.070Z,24.10
2018-06-11T11:23:25.680Z,24.30
2018-06-11T11:25:57.357Z,24.70
2018-06-11T11:28:28.920Z,25.10
2018-06-11T11:31:00.478Z,25.50
2018-06-11T11:33:32.241Z,25.80
2018-06-11T11:36:04.023Z,26.20
2018-06-11T11:38:35.628Z,26.40
2018-06-11T11:41:07.281Z,26.60
2018-06-11T11:43:38.931Z,26.60
2018-06-11T11:46:10.504Z,26.70
2018-06-11T11:48:42.176Z,26.80
2018-06-11T11:51:13.915Z,26.90
2018-06-11T11:53:45.670Z,27.00
2018-06-11T11:56:17.355Z,27.20
2018-06-11T11:58:49.000Z,27.30
2018-06-11T12:01:20.646Z,27.50
2018-06-11T12:03:52.207Z,27.70
2018-06-11T12:06:23.856Z,28.00
2018-06-11T12:08:55.385Z,28.20
2018-06-11T12:11:27.044Z,28.20
2018-06-11T12:13:58.809Z,28.00
2018-06-11T12:16:30.388Z,27.90
2018-06-11T12:19:02.100Z,27.70
2018-06-11T12:21:36.372Z,27.70
2018-06-11T12:24:17.265Z,27.60
2018-06-11T12:26:56.130Z,27.60
2018-06-11T12:29:33.611Z,27.50
2018-06-11T12:32:05.917Z,27.50
2018-06-11T12:34:37.550Z,27.50
2018-06-11T12:37:09.145Z,27.50
2018-06-11T12:39:40.824Z,27.50
2018-06-11T12:42:12.546Z,27.50
2018-06-11T12:44:44.180Z,27.40
2018-06-11T12:47:15.773Z,27.40
2018-06-11T12:49:47.397Z,27.50
2018-06-11T12:52:19.052Z,27.40
2018-06-11T12:54:50.639Z,27.40
2018-06-11T12:57:22.253Z,27.20
2018-06-11T12:59:53.824Z,27.10
2018-06-11T13:02:25.483Z,26.80
2018-06-11T13:04:57.133Z,26.70
2018-06-11T13:07:28.888Z,26.50
2018-06-11T13:10:00.648Z,26.40
2018-06-11T13:12:32.433Z,26.20
2018-06-11T13:15:04.074Z,26.10
2018-06-11T13:17:35.643Z,26.00
2018-06-11T13:20:07.178Z,25.90
2018-06-11T13:22:38.814Z,25.80
2018-06-11T13:25:10.488Z,25.70
2018-06-11T13:27:42.067Z,25.50
2018-06-11T13:30:13.860Z,25.30
2018-06-11T13:32:45.513Z,25.20
2018-06-11T13:35:17.114Z,25.10
2018-06-11T13:37:48.762Z,25.00
2018-06-11T13:40:20.340Z,25.00
2018-06-11T13:42:52.033Z,24.90
2018-06-11T13:45:23.664Z,24.80
2018-06-11T13:47:55.389Z,24.80
2018-06-11T13:50:27.055Z,24.70
2018-06-11T13:52:58.598Z,24.60
2018-06-11T13:55:30.258Z,24.50
2018-06-11T13:58:02.242Z,24.50
2018-06-11T14:00:33.947Z,24.40
2018-06-11T14:03:05.854Z,24.30
2018-06-11T14:05:37.441Z,24.20
2018-06-11T14:08:09.197Z,24.10
2018-06-11T14:10:40.846Z,23.90
2018-06-11T14:13:12.608Z,23.80
2018-06-11T14:15:44.240Z,23.80
2018-06-11T14:18:15.901Z,23.70
2018-06-11T14:20:47.542Z,23.60
2018-06-11T14:23:19.026Z,23.50
2018-06-11T14:25:50.680Z,23.50
2018-06-11T14:28:22.438Z,23.40
2018-06-11T14:30:54.006Z,23.30
2018-06-11T14:33:25.722Z,23.30
2018-06-11T14:35:57.369Z,23.20
2018-06-11T14:38:28.930Z,23.20
2018-06-11T14:41:00.659Z,23.20
2018-06-11T14:43:32.274Z,23.10
2018-06-11T14:46:03.921Z,23.00
2018-06-11T14:48:35.612Z,22.80
2018-06-11T14:51:07.350Z,22.70
2018-06-11T14:53:39.010Z,22.70
2018-06-11T14:56:10.617Z,22.70
2018-06-11T14:58:42.290Z,22.70
2018-06-11T15:01:13.905Z,22.70
2018-06-11T15:03:45.648Z,22.60
2018-06-11T15:06:17.357Z,22.60
2018-06-11T15:08:48.928Z,22.50
2018-06-11T15:11:20.584Z,22.50
2018-06-11T15:13:52.528Z,22.40
2018-06-11T15:16:24.342Z,22.30
2018-06-11T15:18:56.253Z,22.20
2018-06-11T15:21:27.902Z,22.10
2018-06-11T15:23:59.461Z,22.00
2018-06-11T15:26:31.190Z,21.90
2018-06-11T15:29:02.889Z,21.80
2018-06-11T15:31:34.440Z,21.80
2018-06-11T15:34:06.144Z,21.70
2018-06-11T15:36:37.672Z,21.70
2018-06-11T15:39:10.128Z,21.60
2018-06-11T15:41:41.682Z,21.50
2018-06-11T15:44:13.367Z,21.50
2018-06-11T15:46:44.973Z,21.60
2018-06-11T15:49:16.649Z,21.60
2018-06-11T15:51:48.210Z,21.70
2018-06-11T15:54:19.759Z,21.70
2018-06-11T15:59:22.586Z,21.60
2018-06-11T16:01:54.311Z,21.60
2018-06-11T16:04:25.992Z,21.50
2018-06-11T16:06:57.557Z,21.50
2018-06-11T16:09:29.444Z,21.50
2018-06-11T16:12:01.621Z,21.50
2018-06-11T16:14:33.476Z,21.50
2018-06-11T16:17:05.331Z,21.40
2018-06-11T16:19:37.041Z,21.40
2018-06-11T16:22:08.797Z,21.40
2018-06-11T16:24:40.471Z,21.40
2018-06-11T16:27:12.118Z,21.40
2018-06-11T16:29:43.663Z,21.30
2018-06-11T16:32:15.236Z,21.30
2018-06-11T16:34:46.774Z,21.40
2018-06-11T16:37:18.429Z,21.30
2018-06-11T16:39:50.083Z,21.30
2018-06-11T16:44:52.593Z,21.30
2018-06-11T16:47:24.339Z,21.40
2018-06-11T16:52:27.033Z,21.30
2018-06-11T16:54:58.581Z,21.30
2018-06-11T16:57:30.284Z,21.20
2018-06-11T17:00:02.186Z,21.10
2018-06-11T17:02:33.917Z,21.10
2018-06-11T17:05:05.730Z,21.00
2018-06-11T17:07:37.313Z,21.00
2018-06-11T17:10:08.965Z,20.90
2018-06-11T17:12:40.590Z,20.80
2018-06-11T17:15:12.294Z,20.80
2018-06-11T17:17:44.014Z,20.80
2018-06-11T17:20:15.880Z,20.80
2018-06-11T17:22:47.831Z,20.70
2018-06-11T17:25:19.633Z,20.80
2018-06-11T17:27:51.341Z,20.80
2018-06-11T17:30:22.910Z,20.80
2018-06-11T17:32:54.602Z,20.90
2018-06-11T17:35:26.309Z,20.90
2018-06-11T17:37:57.958Z,20.90
2018-06-11T17:40:29.636Z,21.00
2018-06-11T17:43:01.387Z,21.00
2018-06-11T17:45:32.979Z,21.00
2018-06-11T17:48:04.769Z,21.00
2018-06-11T17:50:39.325Z,20.90
2018-06-11T17:53:10.811Z,20.90
2018-06-11T17:55:42.550Z,20.90
2018-06-11T17:58:14.119Z,20.80
2018-06-11T18:00:45.657Z,20.80
2018-06-11T18:03:17.225Z,20.80
2018-06-11T18:05:48.765Z,20.80
2018-06-11T18:08:20.407Z,20.80
2018-06-11T18:10:52.124Z,20.80
2018-06-11T18:13:23.821Z,20.80
2018-06-11T18:15:55.367Z,20.70
2018-06-11T18:18:27.046Z,20.70
2018-06-11T18:20:58.761Z,20.60
2018-06-11T18:23:30.448Z,20.60
2018-06-11T18:26:02.022Z,20.60
2018-06-11T18:28:33.766Z,20.60
2018-06-11T18:31:05.521Z,20.60
2018-06-11T18:33:37.189Z,20.60
2018-06-11T18:36:08.761Z,20.50
2018-06-11T18:38:40.391Z,20.40
2018-06-11T18:41:12.046Z,20.40
2018-06-11T18:43:43.597Z,20.50
2018-06-11T18:46:15.273Z,20.50
2018-06-11T18:48:46.860Z,20.50
2018-06-11T18:51:18.580Z,20.50
2018-06-11T18:53:50.237Z,20.50
2018-06-11T18:56:21.785Z,20.50
2018-06-11T18:58:53.381Z,20.50
2018-06-11T19:01:25.053Z,20.50
2018-06-11T19:03:56.680Z,20.50
2018-06-11T19:06:28.331Z,20.50
2018-06-11T19:09:00.165Z,20.40
2018-06-11T19:14:02.978Z,20.40
2018-06-11T19:16:34.633Z,20.40
2018-06-11T19:21:37.493Z,20.30
2018-06-11T19:24:09.262Z,20.30
2018-06-11T19:26:40.881Z,20.30
2018-06-11T19:29:12.638Z,20.20
2018-06-11T19:31:44.574Z,20.20
2018-06-11T19:34:16.523Z,20.10
2018-06-11T19:36:48.215Z,20.00
2018-06-11T19:39:20.044Z,19.90
2018-06-11T19:41:51.705Z,19.80
2018-06-11T19:44:23.254Z,19.70
2018-06-11T19:46:54.917Z,19.70
2018-06-11T19:49:26.453Z,19.60
2018-06-11T19:51:58.115Z,19.60
2018-06-11T19:54:29.712Z,19.50
2018-06-11T19:57:01.434Z,19.50
2018-06-11T19:59:33.010Z,19.40
2018-06-11T20:02:05.050Z,19.30
2018-06-11T20:04:36.809Z,19.30
2018-06-11T20:07:08.418Z,19.20
2018-06-11T20:09:40.044Z,19.20
2018-06-11T20:12:11.750Z,19.30
2018-06-11T20:14:43.370Z,19.30
2018-06-11T20:17:14.980Z,19.30
2018-06-11T20:19:46.649Z,19.30
2018-06-11T20:22:18.248Z,19.30
2018-06-11T20:24:50.005Z,19.40
2018-06-11T20:27:21.736Z,19.40
2018-06-11T20:29:53.486Z,19.40
2018-06-11T20:32:25.331Z,19.40
2018-06-11T20:34:56.993Z,19.40
2018-06-11T20:37:28.581Z,19.40
2018-06-11T20:40:00.395Z,19.40
2018-06-11T20:42:32.117Z,19.40
2018-06-11T20:45:03.850Z,19.40
2018-06-11T20:47:35.492Z,19.40
2018-06-11T20:50:07.174Z,19.30
2018-06-11T20:52:38.785Z,19.30
2018-06-11T20:55:10.661Z,19.30
2018-06-11T20:57:42.233Z,19.30
2018-06-11T21:00:13.869Z,19.40
2018-06-11T21:02:45.536Z,19.40
2018-06-11T21:05:17.337Z,19.40
2018-06-11T21:07:49.105Z,19.40
2018-06-11T21:10:20.808Z,19.40
2018-06-11T21:12:52.463Z,19.40
2018-06-11T21:15:24.140Z,19.40
2018-06-11T21:17:55.873Z,19.40
2018-06-11T21:20:27.595Z,19.30
2018-06-11T21:22:59.210Z,19.40
2018-06-11T21:25:30.937Z,19.40
2018-06-11T21:28:02.914Z,19.40
2018-06-11T21:30:34.591Z,19.40
2018-06-11T21:33:06.221Z,19.30
2018-06-11T21:35:37.882Z,19.30
2018-06-11T21:38:09.532Z,19.30
2018-06-11T21:40:41.088Z,19.30
2018-06-11T21:43:12.668Z,19.30
2018-06-11T21:45:44.304Z,19.30
2018-06-11T21:48:16.158Z,19.30
2018-06-11T21:50:47.824Z,19.20
2018-06-11T21:53:19.409Z,19.20
2018-06-11T21:55:51.085Z,19.20
2018-06-11T21:58:22.719Z,19.20
2018-06-11T22:00:54.391Z,19.20
2018-06-11T22:03:26.111Z,19.20
2018-06-11T22:05:57.789Z,19.20
2018-06-11T22:08:29.332Z,19.20
2018-06-11T22:11:00.899Z,19.20
2018-06-11T22:13:32.509Z,19.20
2018-06-11T22:16:04.076Z,19.20
2018-06-11T22:18:35.738Z,19.20
2018-06-11T22:21:07.393Z,19.20
2018-06-11T22:23:38.933Z,19.20
2018-06-11T22:26:10.608Z,19.20
2018-06-11T22:28:42.177Z,19.20
2018-06-11T22:31:14.011Z,19.20
2018-06-11T22:33:46.076Z,19.20
2018-06-11T22:36:18.033Z,19.20
2018-06-11T22:38:49.790Z,19.20
2018-06-11T22:41:21.498Z,19.10
2018-06-11T22:43:53.108Z,19.20
2018-06-11T22:46:24.865Z,19.10
2018-06-11T22:48:56.405Z,19.10
2018-06-11T22:51:28.081Z,19.10
2018-06-11T22:53:59.801Z,19.10
2018-06-11T22:56:31.459Z,19.10
2018-06-11T22:59:03.259Z,19.10
2018-06-11T23:01:34.916Z,19.10
2018-06-11T23:04:06.594Z,19.10
2018-06-11T23:06:38.244Z,19.10
2018-06-11T23:09:10.186Z,19.10
2018-06-11T23:11:41.846Z,19.00
2018-06-11T23:14:13.500Z,19.00
2018-06-11T23:16:45.173Z,19.10
2018-06-11T23:19:16.747Z,19.00
2018-06-11T23:21:48.562Z,19.00
2018-06-11T23:24:20.225Z,19.00
2018-06-11T23:26:51.988Z,19.00
2018-06-11T23:29:23.654Z,19.00
2018-06-11T23:31:55.221Z,19.00
2018-06-11T23:36:57.896Z,19.00
2018-06-11T23:39:29.759Z,19.00
2018-06-11T23:42:01.333Z,19.00
2018-06-11T23:44:32.973Z,19.10
2018-06-11T23:47:04.549Z,19.10
2018-06-11T23:49:36.064Z,19.00
2018-06-11T23:52:07.735Z,19.10
2018-06-11T23:54:39.319Z,19.00
2018-06-11T23:57:11.051Z,19.00
2018-06-11T23:59:42.625Z,19.00
